This is the latest recevied weather packets stored in our database for station/object KC3ROS. If no packets are shown the sender has not sent any weather packets the latest 1 day(s).
| Time | Temp. | Humidity | Pressure | Rain* | Wind** | Luminosity | Snow |
|---|---|---|---|---|---|---|---|
| 1777985251 | 18.89° C | 65% | 1007.3 hPa | 0 mm | 1.34 m/s, 186° | 259 W/m² | - |
| 1777984948 | 18.89° C | 64% | 1007.3 hPa | 0 mm | 1.34 m/s, 162° | 412 W/m² | - |
| 1777984643 | 18.33° C | 67% | 1007.1 hPa | 0 mm | 1.79 m/s, 205° | 339 W/m² | - |
| 1777984340 | 18.33° C | 66% | 1007.2 hPa | 0 mm | 1.34 m/s, 212° | 263 W/m² | - |
| 1777984037 | 17.78° C | 67% | 1007.4 hPa | 0 mm | 0.45 m/s, 200° | 263 W/m² | - |
| 1777983734 | 17.78° C | 69% | 1007.4 hPa | 0 mm | 0.45 m/s, 131° | 258 W/m² | - |
| 1777983431 | 17.78° C | 69% | 1007.4 hPa | 0 mm | 0.89 m/s, 214° | 220 W/m² | - |
| 1777983127 | 17.22° C | 69% | 1007.4 hPa | 0 mm | 2.24 m/s, 232° | 190 W/m² | - |
| 1777982824 | 16.67° C | 72% | 1007.4 hPa | 0 mm | 0.45 m/s, 68° | 193 W/m² | - |
| 1777982519 | 17.22° C | 71% | 1007.3 hPa | 0 mm | 0.45 m/s, 255° | 48 W/m² | - |
| 1777982213 | 17.22° C | 70% | 1007.1 hPa | 0 mm | 1.34 m/s, 233° | 31 W/m² | - |
| 1777981911 | 17.22° C | 70% | 1007 hPa | 0 mm | 0 m/s | 47 W/m² | - |
| 1777981608 | 17.22° C | 71% | 1007.1 hPa | 0 mm | 0.45 m/s, 121° | 90 W/m² | - |
| 1777981304 | 17.22° C | 70% | 1007.4 hPa | 0 mm | 0.45 m/s, 176° | 99 W/m² | - |
| 1777981001 | 17.22° C | 70% | 1007.1 hPa | 0 mm | 0.45 m/s, 208° | 96 W/m² | - |
| 1777980697 | 17.22° C | 70% | 1007.2 hPa | 0 mm | 0.89 m/s, 310° | 85 W/m² | - |
| 1777980393 | 17.22° C | 71% | 1007.1 hPa | 0 mm | 1.34 m/s, 269° | 78 W/m² | - |
| 1777980092 | 16.67° C | 71% | 1007.3 hPa | 0 mm | 1.79 m/s, 257° | 64 W/m² | - |
| 1777979786 | 16.67° C | 72% | 1007.2 hPa | 0 mm | 2.24 m/s, 216° | 54 W/m² | - |
| 1777979482 | 16.67° C | 73% | 1007.2 hPa | 0 mm | 1.34 m/s, 233° | 46 W/m² | - |
| 1777979178 | 16.67° C | 72% | 1007 hPa | 0 mm | 0.89 m/s, 172° | 39 W/m² | - |
| 1777978875 | 16.67° C | 72% | 1006.9 hPa | 0 mm | 2.24 m/s, 204° | 31 W/m² | - |
| 1777978572 | 16.67° C | 73% | 1006.9 hPa | 0 mm | 0.45 m/s, 287° | 22 W/m² | - |
| 1777978268 | 16.67° C | 73% | 1006.7 hPa | 0 mm | 0 m/s | 17 W/m² | - |
| 1777977965 | 16.67° C | 73% | 1006.8 hPa | 0 mm | 0.89 m/s, 228° | 13 W/m² | - |
* Rain latest hour (hover to see other rain measurements)
** Current wind speed in m/s (hover to see current wind gust speed)